sensor_id;sensor_type;location;lat;lon;timestamp;P1;durP1;ratioP1;P2;durP2;ratioP2
23175;SDS011;19910;42.652;23.332;2022-07-23T00:02:24;8.10;;;2.97;;
23175;SDS011;19910;42.652;23.332;2022-07-23T00:04:52;4.43;;;2.88;;
23175;SDS011;19910;42.652;23.332;2022-07-23T00:07:19;9.98;;;3.25;;
23175;SDS011;19910;42.652;23.332;2022-07-23T00:09:46;4.93;;;3.53;;
23175;SDS011;19910;42.652;23.332;2022-07-23T00:12:13;7.72;;;2.78;;
23175;SDS011;19910;42.652;23.332;2022-07-23T00:14:40;3.53;;;2.60;;
23175;SDS011;19910;42.652;23.332;2022-07-23T00:17:07;10.10;;;2.65;;
23175;SDS011;19910;42.652;23.332;2022-07-23T00:19:34;4.28;;;2.80;;
23175;SDS011;19910;42.652;23.332;2022-07-23T00:22:02;4.20;;;2.88;;
23175;SDS011;19910;42.652;23.332;2022-07-23T00:24:30;5.30;;;3.47;;
23175;SDS011;19910;42.652;23.332;2022-07-23T00:26:56;4.57;;;3.30;;
23175;SDS011;19910;42.652;23.332;2022-07-23T00:29:23;5.70;;;3.08;;
23175;SDS011;19910;42.652;23.332;2022-07-23T00:31:50;10.32;;;3.80;;
23175;SDS011;19910;42.652;23.332;2022-07-23T00:34:17;6.63;;;3.22;;
23175;SDS011;19910;42.652;23.332;2022-07-23T00:36:44;5.65;;;2.95;;
23175;SDS011;19910;42.652;23.332;2022-07-23T00:39:12;5.43;;;3.30;;
23175;SDS011;19910;42.652;23.332;2022-07-23T00:41:39;5.38;;;3.38;;
23175;SDS011;19910;42.652;23.332;2022-07-23T00:44:16;6.65;;;3.40;;
23175;SDS011;19910;42.652;23.332;2022-07-23T00:46:48;5.82;;;2.58;;
23175;SDS011;19910;42.652;23.332;2022-07-23T00:49:18;4.20;;;2.80;;
23175;SDS011;19910;42.652;23.332;2022-07-23T00:51:46;5.28;;;3.25;;
23175;SDS011;19910;42.652;23.332;2022-07-23T00:54:15;6.65;;;3.42;;
23175;SDS011;19910;42.652;23.332;2022-07-23T00:56:44;4.68;;;2.97;;
23175;SDS011;19910;42.652;23.332;2022-07-23T00:59:11;4.28;;;2.95;;
23175;SDS011;19910;42.652;23.332;2022-07-23T01:01:38;7.95;;;3.15;;
23175;SDS011;19910;42.652;23.332;2022-07-23T01:04:06;16.23;;;3.05;;
23175;SDS011;19910;42.652;23.332;2022-07-23T01:06:34;8.13;;;3.13;;
23175;SDS011;19910;42.652;23.332;2022-07-23T01:09:02;4.53;;;2.78;;
23175;SDS011;19910;42.652;23.332;2022-07-23T01:11:31;9.02;;;3.53;;
23175;SDS011;19910;42.652;23.332;2022-07-23T01:13:59;5.72;;;3.67;;
23175;SDS011;19910;42.652;23.332;2022-07-23T01:16:34;3.97;;;2.55;;
23175;SDS011;19910;42.652;23.332;2022-07-23T01:19:01;10.43;;;3.20;;
23175;SDS011;19910;42.652;23.332;2022-07-23T01:21:29;5.00;;;3.05;;
23175;SDS011;19910;42.652;23.332;2022-07-23T01:23:58;4.70;;;2.85;;
23175;SDS011;19910;42.652;23.332;2022-07-23T01:26:25;8.30;;;3.08;;
23175;SDS011;19910;42.652;23.332;2022-07-23T01:28:52;5.05;;;2.90;;
23175;SDS011;19910;42.652;23.332;2022-07-23T01:31:19;4.40;;;2.72;;
23175;SDS011;19910;42.652;23.332;2022-07-23T01:33:46;5.97;;;2.85;;
23175;SDS011;19910;42.652;23.332;2022-07-23T01:36:12;4.43;;;3.10;;
23175;SDS011;19910;42.652;23.332;2022-07-23T01:38:39;4.38;;;3.08;;
23175;SDS011;19910;42.652;23.332;2022-07-23T01:41:07;5.53;;;3.63;;
23175;SDS011;19910;42.652;23.332;2022-07-23T01:43:34;6.25;;;3.33;;
23175;SDS011;19910;42.652;23.332;2022-07-23T01:46:01;6.07;;;2.72;;
23175;SDS011;19910;42.652;23.332;2022-07-23T01:48:28;5.90;;;2.90;;
23175;SDS011;19910;42.652;23.332;2022-07-23T01:50:55;5.70;;;2.80;;
23175;SDS011;19910;42.652;23.332;2022-07-23T01:53:22;5.65;;;3.33;;
23175;SDS011;19910;42.652;23.332;2022-07-23T01:55:48;6.60;;;3.22;;
23175;SDS011;19910;42.652;23.332;2022-07-23T01:58:17;5.93;;;2.88;;
23175;SDS011;19910;42.652;23.332;2022-07-23T02:00:43;4.45;;;2.97;;
23175;SDS011;19910;42.652;23.332;2022-07-23T02:03:10;8.25;;;3.00;;
23175;SDS011;19910;42.652;23.332;2022-07-23T02:05:37;5.97;;;3.00;;
23175;SDS011;19910;42.652;23.332;2022-07-23T02:08:04;5.15;;;2.83;;
23175;SDS011;19910;42.652;23.332;2022-07-23T02:10:31;14.23;;;3.10;;
23175;SDS011;19910;42.652;23.332;2022-07-23T02:12:58;4.60;;;3.08;;
23175;SDS011;19910;42.652;23.332;2022-07-23T02:15:26;7.28;;;2.70;;
23175;SDS011;19910;42.652;23.332;2022-07-23T02:17:53;4.18;;;3.17;;
23175;SDS011;19910;42.652;23.332;2022-07-23T02:20:21;8.90;;;3.25;;
23175;SDS011;19910;42.652;23.332;2022-07-23T02:22:48;9.23;;;3.63;;
23175;SDS011;19910;42.652;23.332;2022-07-23T02:25:15;5.57;;;3.13;;
23175;SDS011;19910;42.652;23.332;2022-07-23T02:27:42;8.90;;;4.15;;
23175;SDS011;19910;42.652;23.332;2022-07-23T02:30:09;4.45;;;2.90;;
23175;SDS011;19910;42.652;23.332;2022-07-23T02:32:38;5.07;;;3.38;;
23175;SDS011;19910;42.652;23.332;2022-07-23T02:35:07;4.32;;;2.75;;
23175;SDS011;19910;42.652;23.332;2022-07-23T02:37:34;4.60;;;3.08;;
23175;SDS011;19910;42.652;23.332;2022-07-23T02:40:01;3.75;;;3.03;;
23175;SDS011;19910;42.652;23.332;2022-07-23T02:42:28;7.88;;;3.15;;
23175;SDS011;19910;42.652;23.332;2022-07-23T02:44:55;6.28;;;3.33;;
23175;SDS011;19910;42.652;23.332;2022-07-23T02:47:22;7.82;;;2.95;;
23175;SDS011;19910;42.652;23.332;2022-07-23T02:49:50;4.72;;;3.08;;
23175;SDS011;19910;42.652;23.332;2022-07-23T02:52:16;5.57;;;3.42;;
23175;SDS011;19910;42.652;23.332;2022-07-23T02:54:43;4.95;;;3.10;;
23175;SDS011;19910;42.652;23.332;2022-07-23T02:57:10;6.97;;;3.33;;
23175;SDS011;19910;42.652;23.332;2022-07-23T02:59:37;5.78;;;2.88;;
23175;SDS011;19910;42.652;23.332;2022-07-23T03:02:04;6.45;;;3.55;;
23175;SDS011;19910;42.652;23.332;2022-07-23T03:04:31;5.30;;;3.42;;
23175;SDS011;19910;42.652;23.332;2022-07-23T03:06:59;7.07;;;3.97;;
23175;SDS011;19910;42.652;23.332;2022-07-23T03:09:25;13.38;;;3.53;;
23175;SDS011;19910;42.652;23.332;2022-07-23T03:11:52;6.35;;;4.07;;
23175;SDS011;19910;42.652;23.332;2022-07-23T03:14:19;5.50;;;3.13;;
23175;SDS011;19910;42.652;23.332;2022-07-23T03:16:46;7.75;;;3.83;;
23175;SDS011;19910;42.652;23.332;2022-07-23T03:19:14;4.57;;;2.80;;
23175;SDS011;19910;42.652;23.332;2022-07-23T03:21:41;10.43;;;3.22;;
23175;SDS011;19910;42.652;23.332;2022-07-23T03:24:09;6.20;;;3.63;;
23175;SDS011;19910;42.652;23.332;2022-07-23T03:26:36;5.28;;;3.42;;
23175;SDS011;19910;42.652;23.332;2022-07-23T03:29:03;8.98;;;3.70;;
23175;SDS011;19910;42.652;23.332;2022-07-23T03:31:30;4.28;;;3.08;;
23175;SDS011;19910;42.652;23.332;2022-07-23T03:33:57;6.03;;;3.53;;
23175;SDS011;19910;42.652;23.332;2022-07-23T03:36:24;7.35;;;3.80;;
23175;SDS011;19910;42.652;23.332;2022-07-23T03:38:52;9.70;;;3.80;;
23175;SDS011;19910;42.652;23.332;2022-07-23T03:41:20;8.30;;;3.13;;
23175;SDS011;19910;42.652;23.332;2022-07-23T03:43:47;6.70;;;3.53;;
23175;SDS011;19910;42.652;23.332;2022-07-23T03:46:14;10.23;;;4.93;;
23175;SDS011;19910;42.652;23.332;2022-07-23T03:48:42;6.38;;;3.60;;
23175;SDS011;19910;42.652;23.332;2022-07-23T03:51:08;5.90;;;3.95;;
23175;SDS011;19910;42.652;23.332;2022-07-23T03:53:35;6.93;;;3.88;;
23175;SDS011;19910;42.652;23.332;2022-07-23T03:56:02;6.72;;;3.80;;
23175;SDS011;19910;42.652;23.332;2022-07-23T03:58:31;5.97;;;3.50;;
23175;SDS011;19910;42.652;23.332;2022-07-23T04:00:57;8.43;;;5.07;;
23175;SDS011;19910;42.652;23.332;2022-07-23T04:03:24;8.88;;;5.13;;
23175;SDS011;19910;42.652;23.332;2022-07-23T04:05:51;6.60;;;5.00;;
23175;SDS011;19910;42.652;23.332;2022-07-23T04:08:18;6.65;;;4.78;;
23175;SDS011;19910;42.652;23.332;2022-07-23T04:10:45;7.80;;;4.93;;
23175;SDS011;19910;42.652;23.332;2022-07-23T04:13:12;7.82;;;5.68;;
23175;SDS011;19910;42.652;23.332;2022-07-23T04:15:40;10.10;;;5.03;;
23175;SDS011;19910;42.652;23.332;2022-07-23T04:18:06;7.47;;;5.00;;
23175;SDS011;19910;42.652;23.332;2022-07-23T04:20:33;11.43;;;5.45;;
23175;SDS011;19910;42.652;23.332;2022-07-23T04:23:00;8.10;;;4.88;;
23175;SDS011;19910;42.652;23.332;2022-07-23T04:25:27;11.93;;;5.72;;
23175;SDS011;19910;42.652;23.332;2022-07-23T04:27:54;7.00;;;5.07;;
23175;SDS011;19910;42.652;23.332;2022-07-23T04:30:21;6.22;;;4.78;;
23175;SDS011;19910;42.652;23.332;2022-07-23T04:32:49;11.05;;;5.47;;
23175;SDS011;19910;42.652;23.332;2022-07-23T04:35:16;9.75;;;5.03;;
23175;SDS011;19910;42.652;23.332;2022-07-23T04:37:43;9.90;;;5.75;;
23175;SDS011;19910;42.652;23.332;2022-07-23T04:40:10;9.23;;;5.93;;
23175;SDS011;19910;42.652;23.332;2022-07-23T04:42:38;11.32;;;5.57;;
23175;SDS011;19910;42.652;23.332;2022-07-23T04:45:05;9.05;;;6.25;;
23175;SDS011;19910;42.652;23.332;2022-07-23T04:47:33;9.23;;;6.47;;
23175;SDS011;19910;42.652;23.332;2022-07-23T04:50:01;11.52;;;6.50;;
23175;SDS011;19910;42.652;23.332;2022-07-23T04:52:28;9.23;;;5.93;;
23175;SDS011;19910;42.652;23.332;2022-07-23T04:54:55;10.90;;;5.85;;
23175;SDS011;19910;42.652;23.332;2022-07-23T04:57:22;8.98;;;6.20;;
23175;SDS011;19910;42.652;23.332;2022-07-23T04:59:48;8.73;;;6.10;;
23175;SDS011;19910;42.652;23.332;2022-07-23T05:02:15;7.70;;;6.38;;
23175;SDS011;19910;42.652;23.332;2022-07-23T05:04:42;13.65;;;6.80;;
23175;SDS011;19910;42.652;23.332;2022-07-23T05:07:11;8.10;;;6.20;;
23175;SDS011;19910;42.652;23.332;2022-07-23T05:09:38;7.90;;;5.90;;
23175;SDS011;19910;42.652;23.332;2022-07-23T05:12:05;9.32;;;6.55;;
23175;SDS011;19910;42.652;23.332;2022-07-23T05:14:32;8.93;;;6.00;;
23175;SDS011;19910;42.652;23.332;2022-07-23T05:16:59;10.63;;;6.43;;
23175;SDS011;19910;42.652;23.332;2022-07-23T05:19:26;10.25;;;6.78;;
23175;SDS011;19910;42.652;23.332;2022-07-23T05:21:53;9.23;;;6.25;;
23175;SDS011;19910;42.652;23.332;2022-07-23T05:24:21;9.98;;;7.03;;
23175;SDS011;19910;42.652;23.332;2022-07-23T05:26:48;8.48;;;6.30;;
23175;SDS011;19910;42.652;23.332;2022-07-23T05:29:15;11.35;;;6.60;;
23175;SDS011;19910;42.652;23.332;2022-07-23T05:31:42;7.70;;;6.10;;
23175;SDS011;19910;42.652;23.332;2022-07-23T05:34:09;9.65;;;6.47;;
23175;SDS011;19910;42.652;23.332;2022-07-23T05:36:35;7.50;;;6.30;;
23175;SDS011;19910;42.652;23.332;2022-07-23T05:39:07;9.57;;;6.95;;
23175;SDS011;19910;42.652;23.332;2022-07-23T05:41:44;23.10;;;12.25;;
23175;SDS011;19910;42.652;23.332;2022-07-23T05:44:24;9.65;;;6.93;;
23175;SDS011;19910;42.652;23.332;2022-07-23T05:47:00;22.38;;;12.90;;
23175;SDS011;19910;42.652;23.332;2022-07-23T05:49:40;27.15;;;15.10;;
23175;SDS011;19910;42.652;23.332;2022-07-23T05:52:18;26.17;;;14.13;;
23175;SDS011;19910;42.652;23.332;2022-07-23T05:54:45;15.93;;;9.25;;
23175;SDS011;19910;42.652;23.332;2022-07-23T05:57:13;8.77;;;5.72;;
23175;SDS011;19910;42.652;23.332;2022-07-23T05:59:40;15.23;;;7.68;;
23175;SDS011;19910;42.652;23.332;2022-07-23T06:02:07;47.83;;;24.80;;
23175;SDS011;19910;42.652;23.332;2022-07-23T06:04:34;12.75;;;7.00;;
23175;SDS011;19910;42.652;23.332;2022-07-23T06:07:00;8.27;;;6.32;;
23175;SDS011;19910;42.652;23.332;2022-07-23T06:09:27;11.75;;;6.25;;
23175;SDS011;19910;42.652;23.332;2022-07-23T06:11:54;9.98;;;6.22;;
23175;SDS011;19910;42.652;23.332;2022-07-23T06:14:22;7.00;;;5.97;;
23175;SDS011;19910;42.652;23.332;2022-07-23T06:16:49;9.65;;;6.45;;
23175;SDS011;19910;42.652;23.332;2022-07-23T06:19:16;7.55;;;6.75;;
23175;SDS011;19910;42.652;23.332;2022-07-23T06:21:43;10.48;;;5.68;;
23175;SDS011;19910;42.652;23.332;2022-07-23T06:24:10;7.78;;;5.97;;
23175;SDS011;19910;42.652;23.332;2022-07-23T06:26:37;8.27;;;5.97;;
23175;SDS011;19910;42.652;23.332;2022-07-23T06:29:03;8.63;;;5.85;;
23175;SDS011;19910;42.652;23.332;2022-07-23T06:31:32;10.63;;;6.50;;
23175;SDS011;19910;42.652;23.332;2022-07-23T06:33:59;9.18;;;6.05;;
23175;SDS011;19910;42.652;23.332;2022-07-23T06:36:26;8.57;;;5.60;;
23175;SDS011;19910;42.652;23.332;2022-07-23T06:38:53;6.00;;;5.40;;
23175;SDS011;19910;42.652;23.332;2022-07-23T06:41:19;7.75;;;6.07;;
23175;SDS011;19910;42.652;23.332;2022-07-23T06:43:47;12.30;;;6.70;;
23175;SDS011;19910;42.652;23.332;2022-07-23T06:46:14;7.78;;;5.55;;
23175;SDS011;19910;42.652;23.332;2022-07-23T06:48:42;6.53;;;5.32;;
23175;SDS011;19910;42.652;23.332;2022-07-23T06:51:09;10.75;;;5.82;;
23175;SDS011;19910;42.652;23.332;2022-07-23T06:53:36;9.57;;;6.05;;
23175;SDS011;19910;42.652;23.332;2022-07-23T06:56:03;10.63;;;6.00;;
23175;SDS011;19910;42.652;23.332;2022-07-23T06:58:30;5.85;;;5.05;;
23175;SDS011;19910;42.652;23.332;2022-07-23T07:00:57;10.18;;;5.82;;
23175;SDS011;19910;42.652;23.332;2022-07-23T07:03:24;9.80;;;6.22;;
23175;SDS011;19910;42.652;23.332;2022-07-23T07:05:52;6.97;;;5.60;;
23175;SDS011;19910;42.652;23.332;2022-07-23T07:08:19;8.98;;;6.28;;
23175;SDS011;19910;42.652;23.332;2022-07-23T07:10:49;9.68;;;6.00;;
23175;SDS011;19910;42.652;23.332;2022-07-23T07:13:18;6.85;;;5.35;;
23175;SDS011;19910;42.652;23.332;2022-07-23T07:15:45;9.10;;;5.50;;
23175;SDS011;19910;42.652;23.332;2022-07-23T07:18:11;7.43;;;4.90;;
23175;SDS011;19910;42.652;23.332;2022-07-23T07:20:38;10.35;;;5.95;;
23175;SDS011;19910;42.652;23.332;2022-07-23T07:23:06;20.00;;;5.80;;
23175;SDS011;19910;42.652;23.332;2022-07-23T07:25:34;6.82;;;5.32;;
23175;SDS011;19910;42.652;23.332;2022-07-23T07:28:01;10.55;;;5.35;;
23175;SDS011;19910;42.652;23.332;2022-07-23T07:30:28;12.32;;;6.43;;
23175;SDS011;19910;42.652;23.332;2022-07-23T07:32:54;10.93;;;5.43;;
23175;SDS011;19910;42.652;23.332;2022-07-23T07:35:24;7.78;;;5.53;;
23175;SDS011;19910;42.652;23.332;2022-07-23T07:37:55;9.10;;;5.93;;
23175;SDS011;19910;42.652;23.332;2022-07-23T07:40:23;7.80;;;5.30;;
23175;SDS011;19910;42.652;23.332;2022-07-23T07:42:50;9.80;;;5.50;;
23175;SDS011;19910;42.652;23.332;2022-07-23T07:45:19;11.05;;;5.13;;
23175;SDS011;19910;42.652;23.332;2022-07-23T07:47:47;8.85;;;5.20;;
23175;SDS011;19910;42.652;23.332;2022-07-23T07:50:14;12.38;;;5.00;;
23175;SDS011;19910;42.652;23.332;2022-07-23T07:52:41;8.43;;;5.55;;
23175;SDS011;19910;42.652;23.332;2022-07-23T07:55:09;7.20;;;5.60;;
23175;SDS011;19910;42.652;23.332;2022-07-23T07:57:38;7.95;;;5.43;;
23175;SDS011;19910;42.652;23.332;2022-07-23T08:00:06;8.27;;;5.78;;
23175;SDS011;19910;42.652;23.332;2022-07-23T08:02:39;12.23;;;5.70;;
23175;SDS011;19910;42.652;23.332;2022-07-23T08:05:07;6.78;;;4.72;;
23175;SDS011;19910;42.652;23.332;2022-07-23T08:07:35;7.70;;;5.00;;
23175;SDS011;19910;42.652;23.332;2022-07-23T08:10:02;7.32;;;5.22;;
23175;SDS011;19910;42.652;23.332;2022-07-23T08:12:38;10.05;;;5.32;;
23175;SDS011;19910;42.652;23.332;2022-07-23T08:15:06;10.15;;;6.20;;
23175;SDS011;19910;42.652;23.332;2022-07-23T08:17:34;10.82;;;5.30;;
23175;SDS011;19910;42.652;23.332;2022-07-23T08:20:01;8.63;;;5.70;;
23175;SDS011;19910;42.652;23.332;2022-07-23T08:22:41;9.45;;;5.10;;
23175;SDS011;19910;42.652;23.332;2022-07-23T08:25:11;7.63;;;5.30;;
23175;SDS011;19910;42.652;23.332;2022-07-23T08:27:40;7.65;;;5.85;;
23175;SDS011;19910;42.652;23.332;2022-07-23T08:30:07;12.32;;;5.97;;
23175;SDS011;19910;42.652;23.332;2022-07-23T08:32:47;10.98;;;5.78;;
23175;SDS011;19910;42.652;23.332;2022-07-23T08:35:15;8.05;;;5.22;;
23175;SDS011;19910;42.652;23.332;2022-07-23T08:37:42;11.68;;;6.07;;
23175;SDS011;19910;42.652;23.332;2022-07-23T08:40:09;11.05;;;5.90;;
23175;SDS011;19910;42.652;23.332;2022-07-23T08:42:37;7.65;;;5.70;;
23175;SDS011;19910;42.652;23.332;2022-07-23T08:45:06;11.40;;;5.80;;
23175;SDS011;19910;42.652;23.332;2022-07-23T08:47:34;8.63;;;5.45;;
23175;SDS011;19910;42.652;23.332;2022-07-23T08:50:03;7.53;;;5.93;;
23175;SDS011;19910;42.652;23.332;2022-07-23T08:52:31;7.60;;;5.55;;
23175;SDS011;19910;42.652;23.332;2022-07-23T08:54:59;12.88;;;5.78;;
23175;SDS011;19910;42.652;23.332;2022-07-23T08:57:26;8.30;;;6.18;;
23175;SDS011;19910;42.652;23.332;2022-07-23T08:59:53;10.50;;;6.13;;
23175;SDS011;19910;42.652;23.332;2022-07-23T09:02:21;9.88;;;5.57;;
23175;SDS011;19910;42.652;23.332;2022-07-23T09:04:48;10.25;;;6.05;;
23175;SDS011;19910;42.652;23.332;2022-07-23T09:07:15;7.05;;;5.97;;
23175;SDS011;19910;42.652;23.332;2022-07-23T09:09:42;8.45;;;5.68;;
23175;SDS011;19910;42.652;23.332;2022-07-23T09:12:12;6.35;;;5.55;;
23175;SDS011;19910;42.652;23.332;2022-07-23T09:14:40;9.85;;;5.65;;
23175;SDS011;19910;42.652;23.332;2022-07-23T09:17:08;9.85;;;5.88;;
23175;SDS011;19910;42.652;23.332;2022-07-23T09:19:37;7.97;;;5.97;;
23175;SDS011;19910;42.652;23.332;2022-07-23T09:22:17;12.07;;;5.72;;
23175;SDS011;19910;42.652;23.332;2022-07-23T09:27:50;11.63;;;5.57;;
23175;SDS011;19910;42.652;23.332;2022-07-23T09:30:19;9.63;;;5.82;;
23175;SDS011;19910;42.652;23.332;2022-07-23T09:33:03;9.55;;;5.68;;
23175;SDS011;19910;42.652;23.332;2022-07-23T09:35:48;9.48;;;5.28;;
23175;SDS011;19910;42.652;23.332;2022-07-23T09:38:16;8.95;;;5.85;;
23175;SDS011;19910;42.652;23.332;2022-07-23T09:40:45;8.57;;;5.85;;
23175;SDS011;19910;42.652;23.332;2022-07-23T09:43:13;14.18;;;5.50;;
23175;SDS011;19910;42.652;23.332;2022-07-23T09:45:52;10.35;;;5.72;;
23175;SDS011;19910;42.652;23.332;2022-07-23T09:48:21;7.65;;;4.63;;
23175;SDS011;19910;42.652;23.332;2022-07-23T09:50:49;8.93;;;4.93;;
23175;SDS011;19910;42.652;23.332;2022-07-23T09:53:23;9.02;;;5.75;;
23175;SDS011;19910;42.652;23.332;2022-07-23T09:55:51;8.65;;;4.82;;
23175;SDS011;19910;42.652;23.332;2022-07-23T09:58:21;5.40;;;4.53;;
23175;SDS011;19910;42.652;23.332;2022-07-23T10:00:51;6.22;;;4.28;;
23175;SDS011;19910;42.652;23.332;2022-07-23T10:03:19;7.80;;;4.32;;
23175;SDS011;19910;42.652;23.332;2022-07-23T10:05:47;6.43;;;4.88;;
23175;SDS011;19910;42.652;23.332;2022-07-23T10:08:17;6.10;;;4.40;;
23175;SDS011;19910;42.652;23.332;2022-07-23T10:10:45;8.20;;;4.65;;
23175;SDS011;19910;42.652;23.332;2022-07-23T10:13:12;5.35;;;4.22;;
23175;SDS011;19910;42.652;23.332;2022-07-23T10:15:58;10.93;;;4.38;;
23175;SDS011;19910;42.652;23.332;2022-07-23T10:18:25;5.30;;;4.20;;
23175;SDS011;19910;42.652;23.332;2022-07-23T10:20:54;9.23;;;4.90;;
23175;SDS011;19910;42.652;23.332;2022-07-23T10:23:22;7.03;;;4.10;;
23175;SDS011;19910;42.652;23.332;2022-07-23T10:25:57;6.43;;;4.50;;
23175;SDS011;19910;42.652;23.332;2022-07-23T10:31:31;5.45;;;4.60;;
23175;SDS011;19910;42.652;23.332;2022-07-23T10:34:07;5.90;;;4.65;;
23175;SDS011;19910;42.652;23.332;2022-07-23T10:36:44;8.63;;;4.35;;
23175;SDS011;19910;42.652;23.332;2022-07-23T10:39:17;7.68;;;4.30;;
23175;SDS011;19910;42.652;23.332;2022-07-23T10:41:49;6.45;;;4.13;;
23175;SDS011;19910;42.652;23.332;2022-07-23T10:44:18;8.23;;;4.13;;
23175;SDS011;19910;42.652;23.332;2022-07-23T10:46:54;5.47;;;4.00;;
23175;SDS011;19910;42.652;23.332;2022-07-23T10:49:31;7.72;;;4.50;;
23175;SDS011;19910;42.652;23.332;2022-07-23T10:52:16;8.05;;;4.05;;
23175;SDS011;19910;42.652;23.332;2022-07-23T10:54:48;11.43;;;4.03;;
23175;SDS011;19910;42.652;23.332;2022-07-23T10:57:17;9.35;;;4.05;;
23175;SDS011;19910;42.652;23.332;2022-07-23T11:02:51;7.47;;;4.07;;
23175;SDS011;19910;42.652;23.332;2022-07-23T11:05:19;5.15;;;3.20;;
23175;SDS011;19910;42.652;23.332;2022-07-23T11:10:49;6.05;;;3.85;;
23175;SDS011;19910;42.652;23.332;2022-07-23T11:16:16;7.18;;;3.50;;
23175;SDS011;19910;42.652;23.332;2022-07-23T11:19:04;5.45;;;4.03;;
23175;SDS011;19910;42.652;23.332;2022-07-23T11:21:48;8.00;;;3.85;;
23175;SDS011;19910;42.652;23.332;2022-07-23T11:24:21;9.52;;;4.72;;
23175;SDS011;19910;42.652;23.332;2022-07-23T11:26:53;11.52;;;4.25;;
23175;SDS011;19910;42.652;23.332;2022-07-23T11:29:43;9.60;;;4.40;;
23175;SDS011;19910;42.652;23.332;2022-07-23T11:32:24;19.80;;;7.90;;
23175;SDS011;19910;42.652;23.332;2022-07-23T11:34:55;7.15;;;3.88;;
23175;SDS011;19910;42.652;23.332;2022-07-23T11:37:31;14.88;;;6.63;;
23175;SDS011;19910;42.652;23.332;2022-07-23T11:40:02;11.35;;;4.53;;
23175;SDS011;19910;42.652;23.332;2022-07-23T11:42:32;17.67;;;6.30;;
23175;SDS011;19910;42.652;23.332;2022-07-23T11:45:00;10.45;;;4.40;;
23175;SDS011;19910;42.652;23.332;2022-07-23T11:47:27;7.57;;;4.90;;
23175;SDS011;19910;42.652;23.332;2022-07-23T11:49:54;8.32;;;3.97;;
23175;SDS011;19910;42.652;23.332;2022-07-23T11:52:22;9.95;;;4.10;;
23175;SDS011;19910;42.652;23.332;2022-07-23T11:54:51;8.77;;;4.45;;
23175;SDS011;19910;42.652;23.332;2022-07-23T11:57:23;10.07;;;4.38;;
23175;SDS011;19910;42.652;23.332;2022-07-23T11:59:51;9.88;;;4.82;;
23175;SDS011;19910;42.652;23.332;2022-07-23T12:02:21;8.77;;;4.72;;
23175;SDS011;19910;42.652;23.332;2022-07-23T12:04:49;7.28;;;4.07;;
23175;SDS011;19910;42.652;23.332;2022-07-23T12:10:09;10.95;;;4.78;;
23175;SDS011;19910;42.652;23.332;2022-07-23T12:12:40;11.60;;;4.40;;
23175;SDS011;19910;42.652;23.332;2022-07-23T12:15:08;16.02;;;5.07;;
23175;SDS011;19910;42.652;23.332;2022-07-23T12:17:38;7.60;;;4.57;;
23175;SDS011;19910;42.652;23.332;2022-07-23T12:20:07;9.18;;;4.30;;
23175;SDS011;19910;42.652;23.332;2022-07-23T12:22:36;12.82;;;3.72;;
23175;SDS011;19910;42.652;23.332;2022-07-23T12:25:06;8.43;;;4.10;;
23175;SDS011;19910;42.652;23.332;2022-07-23T12:27:34;7.68;;;3.30;;
23175;SDS011;19910;42.652;23.332;2022-07-23T12:30:22;7.20;;;3.45;;
23175;SDS011;19910;42.652;23.332;2022-07-23T12:32:51;9.57;;;3.92;;
23175;SDS011;19910;42.652;23.332;2022-07-23T12:35:19;7.88;;;3.42;;
23175;SDS011;19910;42.652;23.332;2022-07-23T12:37:47;16.38;;;3.53;;
23175;SDS011;19910;42.652;23.332;2022-07-23T12:40:21;8.52;;;3.03;;
23175;SDS011;19910;42.652;23.332;2022-07-23T12:42:51;8.13;;;3.45;;
23175;SDS011;19910;42.652;23.332;2022-07-23T12:45:19;7.15;;;3.30;;
23175;SDS011;19910;42.652;23.332;2022-07-23T12:48:01;11.68;;;3.85;;
23175;SDS011;19910;42.652;23.332;2022-07-23T12:53:20;9.10;;;3.03;;
23175;SDS011;19910;42.652;23.332;2022-07-23T12:55:49;8.80;;;3.60;;
23175;SDS011;19910;42.652;23.332;2022-07-23T12:58:17;12.35;;;3.50;;
23175;SDS011;19910;42.652;23.332;2022-07-23T13:03:37;6.65;;;3.38;;
23175;SDS011;19910;42.652;23.332;2022-07-23T13:06:07;7.65;;;3.13;;
23175;SDS011;19910;42.652;23.332;2022-07-23T13:08:35;9.40;;;3.50;;
23175;SDS011;19910;42.652;23.332;2022-07-23T13:11:03;10.18;;;3.65;;
23175;SDS011;19910;42.652;23.332;2022-07-23T13:13:32;8.00;;;3.38;;
23175;SDS011;19910;42.652;23.332;2022-07-23T13:16:00;9.98;;;3.35;;
23175;SDS011;19910;42.652;23.332;2022-07-23T13:18:28;9.38;;;3.40;;
23175;SDS011;19910;42.652;23.332;2022-07-23T13:20:57;8.20;;;3.70;;
23175;SDS011;19910;42.652;23.332;2022-07-23T13:23:25;5.72;;;2.97;;
23175;SDS011;19910;42.652;23.332;2022-07-23T13:25:52;9.48;;;3.40;;
23175;SDS011;19910;42.652;23.332;2022-07-23T13:28:22;7.80;;;3.55;;
23175;SDS011;19910;42.652;23.332;2022-07-23T13:30:50;9.35;;;3.70;;
23175;SDS011;19910;42.652;23.332;2022-07-23T13:33:18;8.25;;;3.90;;
23175;SDS011;19910;42.652;23.332;2022-07-23T13:35:45;10.00;;;3.78;;
23175;SDS011;19910;42.652;23.332;2022-07-23T13:38:18;5.22;;;3.15;;
23175;SDS011;19910;42.652;23.332;2022-07-23T13:40:46;9.18;;;3.17;;
23175;SDS011;19910;42.652;23.332;2022-07-23T13:43:15;8.93;;;3.55;;
23175;SDS011;19910;42.652;23.332;2022-07-23T13:45:46;8.30;;;3.42;;
23175;SDS011;19910;42.652;23.332;2022-07-23T13:48:13;9.57;;;3.55;;
23175;SDS011;19910;42.652;23.332;2022-07-23T13:50:43;11.10;;;3.45;;
23175;SDS011;19910;42.652;23.332;2022-07-23T13:53:13;8.07;;;4.00;;
23175;SDS011;19910;42.652;23.332;2022-07-23T13:55:43;8.25;;;3.38;;
23175;SDS011;19910;42.652;23.332;2022-07-23T13:58:13;7.88;;;3.38;;
23175;SDS011;19910;42.652;23.332;2022-07-23T14:00:42;10.50;;;3.33;;
23175;SDS011;19910;42.652;23.332;2022-07-23T14:03:10;9.05;;;3.42;;
23175;SDS011;19910;42.652;23.332;2022-07-23T14:05:38;6.30;;;3.33;;
23175;SDS011;19910;42.652;23.332;2022-07-23T14:08:05;8.45;;;3.42;;
23175;SDS011;19910;42.652;23.332;2022-07-23T14:10:32;7.93;;;3.53;;
23175;SDS011;19910;42.652;23.332;2022-07-23T14:13:03;9.85;;;3.95;;
23175;SDS011;19910;42.652;23.332;2022-07-23T14:15:32;8.77;;;3.55;;
23175;SDS011;19910;42.652;23.332;2022-07-23T14:17:59;7.68;;;3.30;;
23175;SDS011;19910;42.652;23.332;2022-07-23T14:20:28;4.57;;;3.65;;
23175;SDS011;19910;42.652;23.332;2022-07-23T14:22:55;7.90;;;3.70;;
23175;SDS011;19910;42.652;23.332;2022-07-23T14:25:25;12.23;;;4.03;;
23175;SDS011;19910;42.652;23.332;2022-07-23T14:27:52;8.13;;;3.50;;
23175;SDS011;19910;42.652;23.332;2022-07-23T14:30:21;6.00;;;3.60;;
23175;SDS011;19910;42.652;23.332;2022-07-23T14:32:49;6.90;;;3.60;;
23175;SDS011;19910;42.652;23.332;2022-07-23T14:35:16;6.50;;;3.33;;
23175;SDS011;19910;42.652;23.332;2022-07-23T14:37:44;7.00;;;3.40;;
23175;SDS011;19910;42.652;23.332;2022-07-23T14:40:11;7.47;;;3.38;;
23175;SDS011;19910;42.652;23.332;2022-07-23T14:42:38;8.40;;;3.78;;
23175;SDS011;19910;42.652;23.332;2022-07-23T14:45:05;5.90;;;3.30;;
23175;SDS011;19910;42.652;23.332;2022-07-23T14:47:34;7.45;;;3.42;;
23175;SDS011;19910;42.652;23.332;2022-07-23T14:50:01;6.97;;;3.20;;
23175;SDS011;19910;42.652;23.332;2022-07-23T14:52:28;5.85;;;3.47;;
23175;SDS011;19910;42.652;23.332;2022-07-23T14:54:55;5.63;;;3.47;;
23175;SDS011;19910;42.652;23.332;2022-07-23T14:57:22;7.68;;;3.90;;
23175;SDS011;19910;42.652;23.332;2022-07-23T14:59:49;8.32;;;3.40;;
23175;SDS011;19910;42.652;23.332;2022-07-23T15:02:16;7.63;;;3.53;;
23175;SDS011;19910;42.652;23.332;2022-07-23T15:04:44;6.55;;;3.80;;